createdAt,value
2018-08-27T00:14:58.090Z,50.4
2018-08-27T00:31:46.126Z,50.4
2018-08-27T00:48:34.063Z,50.4
2018-08-27T01:05:21.949Z,50.4
2018-08-27T01:22:09.793Z,50.4
2018-08-27T01:38:57.669Z,50.4
2018-08-27T01:55:45.374Z,50.4
2018-08-27T02:12:33.402Z,50.4
2018-08-27T02:29:20.796Z,50.4
2018-08-27T02:46:08.446Z,50.8
2018-08-27T03:02:56.170Z,50.8
2018-08-27T03:19:43.841Z,50.8
2018-08-27T03:36:31.521Z,50.8
2018-08-27T03:53:19.112Z,50.8
2018-08-27T04:10:06.665Z,51.2
2018-08-27T04:26:54.323Z,51.2
2018-08-27T04:43:41.823Z,51.2
2018-08-27T05:00:29.399Z,51.2
2018-08-27T05:17:16.865Z,51.6
2018-08-27T05:34:04.329Z,52.0
2018-08-27T05:50:51.717Z,52.4
2018-08-27T06:07:39.235Z,52.4
2018-08-27T06:24:26.679Z,53.2
2018-08-27T06:41:14.165Z,53.2
2018-08-27T06:58:01.642Z,53.6
2018-08-27T07:14:49.094Z,53.6
2018-08-27T07:31:36.554Z,53.6
2018-08-27T07:48:23.973Z,53.6
2018-08-27T08:05:11.760Z,53.6
2018-08-27T08:21:58.854Z,54.0
2018-08-27T08:38:46.148Z,54.0
2018-08-27T08:55:33.666Z,54.0
2018-08-27T09:12:21.327Z,54.0
2018-08-27T09:29:09.318Z,54.4
2018-08-27T09:45:57.592Z,54.8
2018-08-27T10:02:45.393Z,54.8
2018-08-27T10:19:33.346Z,54.8
2018-08-27T10:36:21.378Z,54.8
2018-08-27T10:53:09.685Z,54.8
2018-08-27T11:09:57.985Z,54.8
2018-08-27T11:26:46.349Z,54.4
2018-08-27T11:43:34.862Z,54.4
2018-08-27T12:00:23.412Z,54.4
2018-08-27T12:17:11.832Z,54.8
2018-08-27T12:34:01.321Z,54.8
2018-08-27T12:50:49.860Z,54.4
2018-08-27T13:07:39.092Z,54.4
2018-08-27T13:24:28.275Z,55.2
2018-08-27T13:41:17.625Z,55.2
2018-08-27T13:58:06.957Z,55.2
2018-08-27T14:14:56.412Z,55.2
2018-08-27T14:31:46.123Z,54.8
2018-08-27T14:48:35.426Z,55.2
2018-08-27T15:05:24.958Z,55.6
2018-08-27T15:22:14.430Z,56.0
2018-08-27T15:37:23.252Z,54.0
2018-08-27T15:47:28.471Z,56.0
2018-08-27T16:04:17.515Z,56.4
2018-08-27T16:21:06.267Z,56.8
2018-08-27T16:37:55.028Z,56.8
2018-08-27T16:54:43.666Z,58.0
2018-08-27T17:11:32.540Z,58.4
2018-08-27T17:28:21.511Z,58.0
2018-08-27T17:45:10.157Z,58.8
2018-08-27T18:01:59.126Z,59.2
2018-08-27T18:18:47.501Z,59.6
2018-08-27T18:35:37.734Z,60.0
2018-08-27T18:52:26.025Z,60.0
2018-08-27T19:09:15.147Z,60.4
2018-08-27T19:26:03.126Z,60.0
2018-08-27T19:42:51.892Z,60.4
2018-08-27T19:59:38.315Z,60.4
2018-08-27T20:16:26.170Z,60.0
2018-08-27T20:33:14.091Z,60.4
2018-08-27T20:50:01.983Z,60.4
2018-08-27T21:06:49.707Z,60.4
2018-08-27T21:23:37.514Z,60.0
2018-08-27T21:40:25.287Z,60.0
2018-08-27T21:57:13.034Z,60.0
2018-08-27T22:14:00.783Z,59.6
2018-08-27T22:30:48.511Z,59.6
2018-08-27T22:47:36.219Z,59.6
2018-08-27T23:04:23.980Z,58.8
2018-08-27T23:21:11.754Z,58.8
2018-08-27T23:37:59.433Z,58.8
2018-08-27T23:54:46.845Z,58.4
